Time,TemperatureF,DewpointF,PressureIn,WindDirection,WindDirectionDegrees,WindSpeedMPH,WindSpeedGustMPH,Humidity,HourlyPrecipIn,Conditions,Clouds,dailyrainin,SoftwareType,DateUTC
2013-03-02 00:10:00,38.7,27.6,29.82,North,32767,0.0,0.0,64,0.00,,,0.00,Wunderground v.1.12,2013-03-02 05:10:00,
2013-03-02 00:20:00,38.5,27.7,29.82,North,360,0.0,0.0,65,0.00,,,0.00,Wunderground v.1.12,2013-03-02 05:20:00,
2013-03-02 00:30:00,38.4,27.7,29.81,North,32767,0.0,0.0,65,0.00,,,0.00,Wunderground v.1.12,2013-03-02 05:30:00,
2013-03-02 00:40:00,38.2,27.5,29.81,North,32767,0.0,0.0,65,0.00,,,0.00,Wunderground v.1.12,2013-03-02 05:40:00,
2013-03-02 00:50:00,37.9,27.5,29.81,North,360,0.0,0.0,66,0.00,,,0.00,Wunderground v.1.12,2013-03-02 05:50:00,
2013-03-02 01:00:00,37.6,27.3,29.81,North,32767,0.0,0.0,66,0.00,,,0.00,Wunderground v.1.12,2013-03-02 06:00:00,
2013-03-02 01:10:00,37.3,27.0,29.81,North,32767,0.0,0.0,66,0.00,,,0.00,Wunderground v.1.12,2013-03-02 06:10:00,
2013-03-02 01:20:00,36.9,27.0,29.81,North,32767,0.0,0.0,67,0.00,,,0.00,Wunderground v.1.12,2013-03-02 06:20:00,
2013-03-02 01:30:00,36.6,26.3,29.82,North,32767,0.0,0.0,66,0.00,,,0.00,Wunderground v.1.12,2013-03-02 06:30:00,
2013-03-02 01:40:00,36.4,26.1,29.82,North,32767,0.0,0.0,66,0.00,,,0.00,Wunderground v.1.12,2013-03-02 06:40:00,
2013-03-02 01:50:00,36.3,26.0,29.82,North,32767,0.0,0.0,66,0.00,,,0.00,Wunderground v.1.12,2013-03-02 06:50:00,
2013-03-02 02:00:00,36.1,25.8,29.82,North,360,0.0,0.0,66,0.00,,,0.00,Wunderground v.1.12,2013-03-02 07:00:00,
2013-03-02 02:10:00,36.0,25.7,29.81,North,360,0.0,0.0,66,0.00,,,0.00,Wunderground v.1.12,2013-03-02 07:10:00,
2013-03-02 02:20:00,35.9,25.6,29.81,North,360,0.0,0.0,66,0.00,,,0.00,Wunderground v.1.12,2013-03-02 07:20:00,
2013-03-02 02:30:00,35.7,25.4,29.81,North,360,0.0,0.0,66,0.00,,,0.00,Wunderground v.1.12,2013-03-02 07:30:00,
2013-03-02 02:40:00,35.5,25.6,29.81,North,32767,0.0,0.0,67,0.00,,,0.00,Wunderground v.1.12,2013-03-02 07:40:00,
2013-03-02 02:50:00,35.2,25.3,29.81,North,32767,0.0,0.0,67,0.00,,,0.00,Wunderground v.1.12,2013-03-02 07:50:00,
2013-03-02 03:00:00,34.8,25.3,29.80,North,32767,0.0,0.0,68,0.00,,,0.00,Wunderground v.1.12,2013-03-02 08:00:00,
2013-03-02 03:10:00,34.4,24.9,29.80,North,360,0.0,0.0,68,0.00,,,0.00,Wunderground v.1.12,2013-03-02 08:10:00,
2013-03-02 03:20:00,34.4,25.3,29.80,North,360,0.0,0.0,69,0.00,,,0.00,Wunderground v.1.12,2013-03-02 08:20:00,
2013-03-02 03:30:00,34.3,25.2,29.81,North,32767,0.0,0.0,69,0.00,,,0.00,Wunderground v.1.12,2013-03-02 08:30:00,
2013-03-02 03:40:00,34.2,25.1,29.81,North,32767,0.0,0.0,69,0.00,,,0.00,Wunderground v.1.12,2013-03-02 08:40:00,
2013-03-02 03:50:00,34.1,25.3,29.81,North,32767,0.0,0.0,70,0.00,,,0.00,Wunderground v.1.12,2013-03-02 08:50:00,
2013-03-02 04:00:00,34.0,25.2,29.81,North,32767,0.0,0.0,70,0.00,,,0.00,Wunderground v.1.12,2013-03-02 09:00:00,
2013-03-02 04:10:00,34.0,25.6,29.81,North,32767,0.0,0.0,71,0.00,,,0.00,Wunderground v.1.12,2013-03-02 09:10:00,
2013-03-02 04:20:00,33.9,25.5,29.81,North,32767,0.0,0.0,71,0.00,,,0.00,Wunderground v.1.12,2013-03-02 09:20:00,
2013-03-02 04:30:00,33.8,25.4,29.81,North,360,0.0,0.0,71,0.00,,,0.00,Wunderground v.1.12,2013-03-02 09:30:00,
2013-03-02 04:40:00,33.7,25.3,29.80,North,32767,0.0,0.0,71,0.00,,,0.00,Wunderground v.1.12,2013-03-02 09:40:00,
2013-03-02 04:50:00,33.6,25.5,29.80,North,32767,0.0,0.0,72,0.00,,,0.00,Wunderground v.1.12,2013-03-02 09:50:00,
2013-03-02 05:00:00,33.4,25.3,29.81,North,360,0.0,0.0,72,0.00,,,0.00,Wunderground v.1.12,2013-03-02 10:00:00,
2013-03-02 05:10:00,33.2,25.5,29.80,North,360,0.0,0.0,73,0.00,,,0.00,Wunderground v.1.12,2013-03-02 10:10:00,
2013-03-02 05:20:00,33.0,25.3,29.80,North,32767,0.0,0.0,73,0.00,,,0.00,Wunderground v.1.12,2013-03-02 10:20:00,
2013-03-02 05:30:00,32.8,25.1,29.80,North,360,0.0,0.0,73,0.00,,,0.00,Wunderground v.1.12,2013-03-02 10:30:00,
2013-03-02 05:40:00,32.7,25.3,29.81,North,32767,0.0,0.0,74,0.00,,,0.00,Wunderground v.1.12,2013-03-02 10:40:00,
2013-03-02 05:50:00,32.5,25.1,29.81,North,32767,0.0,0.0,74,0.00,,,0.00,Wunderground v.1.12,2013-03-02 10:50:00,
2013-03-02 06:00:00,32.5,25.1,29.81,North,32767,0.0,0.0,74,0.00,,,0.00,Wunderground v.1.12,2013-03-02 11:00:00,
2013-03-02 06:10:00,32.4,25.0,29.81,North,32767,0.0,0.0,74,0.00,,,0.00,Wunderground v.1.12,2013-03-02 11:10:00,
2013-03-02 06:20:00,32.3,24.9,29.81,North,32767,0.0,0.0,74,0.00,,,0.00,Wunderground v.1.12,2013-03-02 11:20:00,
2013-03-02 06:30:00,32.0,25.0,29.82,North,32767,0.0,0.0,75,0.00,,,0.00,Wunderground v.1.12,2013-03-02 11:30:00,
2013-03-02 06:40:00,31.9,24.9,29.82,North,360,0.0,0.0,75,0.00,,,0.00,Wunderground v.1.12,2013-03-02 11:40:00,
2013-03-02 06:50:00,31.8,24.8,29.82,North,32767,0.0,0.0,75,0.00,,,0.00,Wunderground v.1.12,2013-03-02 11:50:00,
2013-03-02 07:00:00,31.8,24.8,29.82,North,32767,0.0,0.0,75,0.00,,,0.00,Wunderground v.1.12,2013-03-02 12:00:00,
2013-03-02 07:10:00,32.0,25.0,29.83,North,32767,0.0,0.0,75,0.00,,,0.00,Wunderground v.1.12,2013-03-02 12:10:00,
2013-03-02 07:20:00,32.3,25.3,29.83,North,32767,0.0,0.0,75,0.00,,,0.00,Wunderground v.1.12,2013-03-02 12:20:00,
2013-03-02 07:30:00,32.7,23.3,29.82,WNW,298,0.0,0.0,68,0.00,,,0.00,Wunderground v.1.12,2013-03-02 12:30:00,
2013-03-02 07:40:00,32.8,23.0,29.82,WNW,298,0.0,0.0,67,0.00,,,0.00,Wunderground v.1.12,2013-03-02 12:40:00,
2013-03-02 07:50:00,33.5,23.4,29.82,WNW,298,0.0,0.0,66,0.00,,,0.00,Wunderground v.1.12,2013-03-02 12:50:00,
2013-03-02 08:00:00,34.3,23.4,29.82,WNW,288,1.0,1.0,64,0.00,,,0.00,Wunderground v.1.12,2013-03-02 13:00:00,
2013-03-02 08:10:00,35.0,23.7,29.82,WNW,294,0.0,0.0,63,0.00,,,0.00,Wunderground v.1.12,2013-03-02 13:10:00,
2013-03-02 08:20:00,36.0,24.2,29.82,WNW,285,0.0,0.0,62,0.00,,,0.00,Wunderground v.1.12,2013-03-02 13:20:00,
2013-03-02 08:30:00,36.9,24.3,29.82,WNW,302,1.0,1.0,60,0.00,,,0.00,Wunderground v.1.12,2013-03-02 13:30:00,
2013-03-02 08:40:00,37.3,24.7,29.82,NW,309,1.0,1.0,60,0.00,,,0.00,Wunderground v.1.12,2013-03-02 13:40:00,
2013-03-02 08:50:00,38.0,24.1,29.82,WNW,301,0.0,1.0,57,0.00,,,0.00,Wunderground v.1.12,2013-03-02 13:50:00,
2013-03-02 09:00:00,38.5,24.1,29.82,West,268,0.0,0.0,56,0.00,,,0.00,Wunderground v.1.12,2013-03-02 14:00:00,
2013-03-02 09:10:00,38.6,24.7,29.82,WNW,292,0.0,0.0,57,0.00,,,0.00,Wunderground v.1.12,2013-03-02 14:10:00,
2013-03-02 09:20:00,38.0,23.3,29.82,West,270,1.0,1.0,55,0.00,,,0.00,Wunderground v.1.12,2013-03-02 14:20:00,
2013-03-02 09:30:00,38.2,24.3,29.82,WNW,296,0.0,0.0,57,0.00,,,0.00,Wunderground v.1.12,2013-03-02 14:30:00,
2013-03-02 09:40:00,38.2,23.4,29.82,NW,305,1.0,1.0,55,0.00,,,0.00,Wunderground v.1.12,2013-03-02 14:40:00,
2013-03-02 09:50:00,38.0,22.8,29.82,WSW,240,2.0,2.0,54,0.00,,,0.00,Wunderground v.1.12,2013-03-02 14:50:00,
2013-03-02 10:00:00,37.6,23.3,29.83,WNW,289,1.0,1.0,56,0.00,,,0.00,Wunderground v.1.12,2013-03-02 15:00:00,
2013-03-02 10:10:00,37.5,22.8,29.82,NNE,15,1.0,1.0,55,0.00,,,0.00,Wunderground v.1.12,2013-03-02 15:10:00,
2013-03-02 10:20:00,37.2,23.4,29.82,West,278,1.0,1.0,57,0.00,,,0.00,Wunderground v.1.12,2013-03-02 15:20:00,
2013-03-02 10:30:00,37.0,22.3,29.82,NW,306,1.0,4.0,55,0.00,,,0.00,Wunderground v.1.12,2013-03-02 15:30:00,
2013-03-02 10:40:00,37.0,21.9,29.82,WNW,290,1.0,1.0,54,0.00,,,0.00,Wunderground v.1.12,2013-03-02 15:40:00,
2013-03-02 10:50:00,37.2,21.2,29.82,WNW,301,1.0,1.0,52,0.00,,,0.00,Wunderground v.1.12,2013-03-02 15:50:00,
2013-03-02 11:00:00,37.6,21.1,29.82,WSW,253,1.0,1.0,51,0.00,,,0.00,Wunderground v.1.12,2013-03-02 16:00:00,
2013-03-02 11:10:00,38.0,21.0,29.82,WNW,292,0.0,7.0,50,0.00,,,0.00,Wunderground v.1.12,2013-03-02 16:10:00,
2013-03-02 11:20:00,38.2,21.2,29.82,West,279,1.0,1.0,50,0.00,,,0.00,Wunderground v.1.12,2013-03-02 16:20:00,
2013-03-02 11:30:00,38.2,20.7,29.81,WSW,245,2.0,2.0,49,0.00,,,0.00,Wunderground v.1.12,2013-03-02 16:30:00,
2013-03-02 11:40:00,38.2,21.6,29.81,WNW,291,1.0,1.0,51,0.00,,,0.00,Wunderground v.1.12,2013-03-02 16:40:00,
2013-03-02 11:50:00,38.2,21.2,29.81,West,261,1.0,7.0,50,0.00,,,0.00,Wunderground v.1.12,2013-03-02 16:50:00,
2013-03-02 12:00:00,38.2,21.6,29.80,SW,231,0.0,7.0,51,0.00,,,0.00,Wunderground v.1.12,2013-03-02 17:00:00,
2013-03-02 12:10:00,38.3,21.7,29.80,SW,236,1.0,7.0,51,0.00,,,0.00,Wunderground v.1.12,2013-03-02 17:10:00,
2013-03-02 12:20:00,38.0,21.9,29.80,WNW,288,2.0,8.0,52,0.00,,,0.00,Wunderground v.1.12,2013-03-02 17:20:00,
2013-03-02 12:30:00,37.9,21.4,29.79,West,275,2.0,7.0,51,0.00,,,0.00,Wunderground v.1.12,2013-03-02 17:30:00,
2013-03-02 12:40:00,38.5,22.8,29.79,SW,225,1.0,1.0,53,0.00,,,0.00,Wunderground v.1.12,2013-03-02 17:40:00,
2013-03-02 12:50:00,39.2,21.6,29.79,WSW,252,1.0,7.0,49,0.00,,,0.00,Wunderground v.1.12,2013-03-02 17:50:00,
2013-03-02 13:00:00,39.6,22.0,29.77,WNW,284,1.0,1.0,49,0.00,,,0.00,Wunderground v.1.12,2013-03-02 18:00:00,
2013-03-02 13:10:00,40.1,22.0,29.77,West,279,0.0,7.0,48,0.00,,,0.00,Wunderground v.1.12,2013-03-02 18:10:00,
2013-03-02 13:20:00,39.3,21.7,29.77,WSW,240,2.0,2.0,49,0.00,,,0.00,Wunderground v.1.12,2013-03-02 18:20:00,
2013-03-02 13:30:00,38.5,21.9,29.77,WNW,296,2.0,2.0,51,0.00,,,0.00,Wunderground v.1.12,2013-03-02 18:30:00,
2013-03-02 13:40:00,38.5,21.9,29.77,WNW,283,2.0,7.0,51,0.00,,,0.00,Wunderground v.1.12,2013-03-02 18:40:00,
2013-03-02 13:50:00,38.3,21.7,29.77,WSW,242,2.0,2.0,51,0.00,,,0.00,Wunderground v.1.12,2013-03-02 18:50:00,
2013-03-02 14:00:00,37.9,21.8,29.76,West,267,2.0,7.0,52,0.00,,,0.00,Wunderground v.1.12,2013-03-02 19:00:00,
2013-03-02 14:10:00,37.6,22.0,29.76,West,275,2.0,2.0,53,0.00,,,0.00,Wunderground v.1.12,2013-03-02 19:10:00,
2013-03-02 14:20:00,37.5,22.3,29.76,SW,215,1.0,1.0,54,0.00,,,0.00,Wunderground v.1.12,2013-03-02 19:20:00,
2013-03-02 14:30:00,37.3,22.2,29.76,WNW,292,1.0,7.0,54,0.00,,,0.00,Wunderground v.1.12,2013-03-02 19:30:00,
2013-03-02 14:40:00,37.3,22.2,29.76,WNW,284,1.0,7.0,54,0.00,,,0.00,Wunderground v.1.12,2013-03-02 19:40:00,
2013-03-02 14:50:00,37.2,22.1,29.76,WNW,297,2.0,7.0,54,0.00,,,0.00,Wunderground v.1.12,2013-03-02 19:50:00,
2013-03-02 15:00:00,37.3,22.6,29.76,West,263,1.0,7.0,55,0.00,,,0.00,Wunderground v.1.12,2013-03-02 20:00:00,
2013-03-02 15:10:00,37.5,21.9,29.76,WNW,287,1.0,7.0,53,0.00,,,0.00,Wunderground v.1.12,2013-03-02 20:10:00,
2013-03-02 15:20:00,37.6,22.4,29.76,WNW,292,1.0,1.0,54,0.00,,,0.00,Wunderground v.1.12,2013-03-02 20:20:00,
2013-03-02 15:30:00,38.2,22.6,29.76,WNW,292,0.0,7.0,53,0.00,,,0.00,Wunderground v.1.12,2013-03-02 20:30:00,
2013-03-02 15:40:00,38.5,22.4,29.76,WNW,302,1.0,1.0,52,0.00,,,0.00,Wunderground v.1.12,2013-03-02 20:40:00,
2013-03-02 15:50:00,37.9,22.3,29.76,WNW,298,3.0,3.0,53,0.00,,,0.00,Wunderground v.1.12,2013-03-02 20:50:00,
2013-03-02 16:00:00,37.7,25.8,29.76,North,32767,1.0,1.0,62,0.00,,,0.00,Wunderground v.1.12,2013-03-02 21:00:00,
2013-03-02 16:10:00,37.5,25.7,29.76,North,360,0.0,10.0,62,0.00,,,0.00,Wunderground v.1.12,2013-03-02 21:10:00,
2013-03-02 16:20:00,37.7,25.8,29.76,North,32767,0.0,10.0,62,0.00,,,0.00,Wunderground v.1.12,2013-03-02 21:20:00,
2013-03-02 16:30:00,38.2,25.9,29.76,North,32767,0.0,10.0,61,0.00,,,0.00,Wunderground v.1.12,2013-03-02 21:30:00,
2013-03-02 16:40:00,38.3,25.6,29.76,North,32767,0.0,10.0,60,0.00,,,0.00,Wunderground v.1.12,2013-03-02 21:40:00,
2013-03-02 16:50:00,38.3,25.6,29.76,North,32767,0.0,10.0,60,0.00,,,0.00,Wunderground v.1.12,2013-03-02 21:50:00,
2013-03-02 17:00:00,38.0,25.3,29.76,North,32767,0.0,10.0,60,0.00,,,0.00,Wunderground v.1.12,2013-03-02 22:00:00,
2013-03-02 17:10:00,37.8,25.1,29.77,North,32767,0.0,10.0,60,0.00,,,0.00,Wunderground v.1.12,2013-03-02 22:10:00,
2013-03-02 17:20:00,37.6,25.0,29.77,North,360,0.0,10.0,60,0.00,,,0.00,Wunderground v.1.12,2013-03-02 22:20:00,
2013-03-02 17:30:00,37.3,24.7,29.77,North,32767,0.0,10.0,60,0.00,,,0.00,Wunderground v.1.12,2013-03-02 22:30:00,
2013-03-02 17:40:00,37.2,24.6,29.77,North,32767,0.0,10.0,60,0.00,,,0.00,Wunderground v.1.12,2013-03-02 22:40:00,
2013-03-02 17:50:00,37.0,24.0,29.77,North,360,0.0,10.0,59,0.00,,,0.00,Wunderground v.1.12,2013-03-02 22:50:00,
2013-03-02 18:00:00,36.9,24.3,29.78,North,32767,0.0,10.0,60,0.00,,,0.00,Wunderground v.1.12,2013-03-02 23:00:00,
2013-03-02 18:10:00,36.7,24.1,29.78,North,360,0.0,10.0,60,0.00,,,0.00,Wunderground v.1.12,2013-03-02 23:10:00,
2013-03-02 18:20:00,36.5,23.5,29.78,North,32767,0.0,10.0,59,0.00,,,0.00,Wunderground v.1.12,2013-03-02 23:20:00,
2013-03-02 18:30:00,36.3,23.3,29.79,North,360,0.0,10.0,59,0.00,,,0.00,Wunderground v.1.12,2013-03-02 23:30:00,
2013-03-02 18:40:00,36.1,23.5,29.79,North,360,0.0,10.0,60,0.00,,,0.00,Wunderground v.1.12,2013-03-02 23:40:00,
2013-03-02 18:50:00,36.0,23.4,29.79,North,360,0.0,10.0,60,0.00,,,0.00,Wunderground v.1.12,2013-03-02 23:50:00,
2013-03-02 19:00:00,35.9,23.4,29.79,North,32767,0.0,10.0,60,0.00,,,0.00,Wunderground v.1.12,2013-03-03 00:00:00,
2013-03-02 19:10:00,35.9,23.7,29.79,North,32767,0.0,10.0,61,0.00,,,0.00,Wunderground v.1.12,2013-03-03 00:10:00,
2013-03-02 19:20:00,35.9,23.0,29.79,North,32767,0.0,10.0,59,0.00,,,0.00,Wunderground v.1.12,2013-03-03 00:20:00,
2013-03-02 19:30:00,35.6,22.7,29.79,North,32767,0.0,10.0,59,0.00,,,0.00,Wunderground v.1.12,2013-03-03 00:30:00,
2013-03-02 19:40:00,35.3,22.4,29.79,North,32767,0.0,10.0,59,0.00,,,0.00,Wunderground v.1.12,2013-03-03 00:40:00,
2013-03-02 19:50:00,34.9,22.0,29.79,North,32767,0.0,10.0,59,0.00,,,0.00,Wunderground v.1.12,2013-03-03 00:50:00,
2013-03-02 20:00:00,34.4,21.9,29.79,North,32767,0.0,10.0,60,0.00,,,0.00,Wunderground v.1.12,2013-03-03 01:00:00,
2013-03-02 20:10:00,34.4,22.7,29.79,North,32767,0.0,0.0,62,0.00,,,0.00,Wunderground v.1.12,2013-03-03 01:10:00,
2013-03-02 20:20:00,34.0,23.1,29.79,North,32767,0.0,0.0,64,0.00,,,0.00,Wunderground v.1.12,2013-03-03 01:20:00,
2013-03-02 20:30:00,33.7,23.2,29.79,North,32767,0.0,0.0,65,0.00,,,0.00,Wunderground v.1.12,2013-03-03 01:30:00,
2013-03-02 20:40:00,33.7,23.5,29.80,North,32767,0.0,0.0,66,0.00,,,0.00,Wunderground v.1.12,2013-03-03 01:40:00,
2013-03-02 20:50:00,33.7,23.5,29.80,North,32767,0.0,0.0,66,0.00,,,0.00,Wunderground v.1.12,2013-03-03 01:50:00,
2013-03-02 21:00:00,33.8,23.6,29.80,North,32767,0.0,0.0,66,0.00,,,0.00,Wunderground v.1.12,2013-03-03 02:00:00,
2013-03-02 21:10:00,33.7,23.9,29.80,North,360,0.0,0.0,67,0.00,,,0.00,Wunderground v.1.12,2013-03-03 02:10:00,
2013-03-02 21:20:00,33.6,23.8,29.80,North,32767,0.0,0.0,67,0.00,,,0.00,Wunderground v.1.12,2013-03-03 02:20:00,
2013-03-02 21:30:00,33.4,23.6,29.80,North,32767,0.0,0.0,67,0.00,,,0.00,Wunderground v.1.12,2013-03-03 02:30:00,
2013-03-02 21:40:00,33.1,23.7,29.80,North,32767,0.0,0.0,68,0.00,,,0.00,Wunderground v.1.12,2013-03-03 02:40:00,
2013-03-02 21:50:00,32.8,23.4,29.80,North,32767,0.0,0.0,68,0.00,,,0.00,Wunderground v.1.12,2013-03-03 02:50:00,
2013-03-02 22:00:00,32.4,23.4,29.80,North,32767,0.0,0.0,69,0.00,,,0.00,Wunderground v.1.12,2013-03-03 03:00:00,
2013-03-02 22:10:00,32.1,23.1,29.80,North,32767,0.0,0.0,69,0.00,,,0.00,Wunderground v.1.12,2013-03-03 03:10:00,
2013-03-02 22:20:00,31.9,23.2,29.80,North,360,0.0,0.0,70,0.00,,,0.00,Wunderground v.1.12,2013-03-03 03:20:00,
2013-03-02 22:30:00,31.6,22.9,29.80,North,360,0.0,0.0,70,0.00,,,0.00,Wunderground v.1.12,2013-03-03 03:30:00,
2013-03-02 22:40:00,31.5,22.8,29.80,North,32767,0.0,0.0,70,0.00,,,0.00,Wunderground v.1.12,2013-03-03 03:40:00,
2013-03-02 22:50:00,31.5,22.8,29.80,North,360,0.0,0.0,70,0.00,,,0.00,Wunderground v.1.12,2013-03-03 03:50:00,
2013-03-02 23:00:00,31.2,22.5,29.80,North,32767,0.0,0.0,70,0.00,,,0.00,Wunderground v.1.12,2013-03-03 04:00:00,
2013-03-02 23:10:00,31.1,22.5,29.80,North,32767,0.0,0.0,70,0.00,,,0.00,Wunderground v.1.12,2013-03-03 04:10:00,
2013-03-02 23:20:00,31.0,22.4,29.80,North,360,0.0,0.0,70,0.00,,,0.00,Wunderground v.1.12,2013-03-03 04:20:00,
2013-03-02 23:30:00,31.0,22.4,29.80,North,32767,0.0,0.0,70,0.00,,,0.00,Wunderground v.1.12,2013-03-03 04:30:00,
2013-03-02 23:40:00,30.8,22.5,29.79,North,360,0.0,0.0,71,0.00,,,0.00,Wunderground v.1.12,2013-03-03 04:40:00,
2013-03-02 23:50:00,30.7,22.4,29.79,North,32767,0.0,0.0,71,0.00,,,0.00,Wunderground v.1.12,2013-03-03 04:50:00,